Time;durP1;ratioP1;P1;durP2;ratioP2;P2;SDS_P1;SDS_P2;PMS_P1;PMS_P2;Temp;Humidity;BMP_temperature;BMP_pressure;BME280_temperature;BME280_humidity;BME280_pressure;Samples;Min_cycle;Max_cycle;Signal;HPM_P1;HPM_P2
2023/07/27 00:00:49;;;;;;;7.20;1.30;;;;;;;-128.00;-1.00;-1.00;18890;295;7504900;-34
2023/07/27 00:03:15;;;;;;;2.50;0.90;;;;;;;-128.00;-1.00;-1.00;18874;335;7506832;-35
2023/07/27 00:05:41;;;;;;;2.60;0.80;;;;;;;-128.00;-1.00;-1.00;18897;295;7504978;-33
2023/07/27 00:08:07;;;;;;;1.30;0.80;;;;;;;-128.00;-1.00;-1.00;18887;295;7504942;-33
2023/07/27 00:10:33;;;;;;;2.10;0.80;;;;;;;-128.00;-1.00;-1.00;18899;295;7504518;-35
2023/07/27 00:12:59;;;;;;;11.30;1.20;;;;;;;-128.00;-1.00;-1.00;18911;322;7504936;-33
2023/07/27 00:15:26;;;;;;;9.90;2.60;;;;;;;-128.00;-1.00;-1.00;18880;336;7505248;-32
2023/07/27 00:17:52;;;;;;;2.90;0.70;;;;;;;-128.00;-1.00;-1.00;18875;287;7505649;-32
2023/07/27 00:20:18;;;;;;;5.70;1.10;;;;;;;-128.00;-1.00;-1.00;18896;295;7504114;-35
2023/07/27 00:22:44;;;;;;;1.50;0.90;;;;;;;-128.00;-1.00;-1.00;18865;318;7504346;-32
2023/07/27 00:25:11;;;;;;;2.30;0.70;;;;;;;-128.00;-1.00;-1.00;18855;283;7504900;-33
2023/07/27 00:27:37;;;;;;;3.20;1.00;;;;;;;-128.00;-1.00;-1.00;18893;295;7506220;-33
2023/07/27 00:30:04;;;;;;;1.10;0.50;;;;;;;-128.00;-1.00;-1.00;18896;295;7505628;-35
2023/07/27 00:32:30;;;;;;;3.40;1.20;;;;;;;-128.00;-1.00;-1.00;18508;295;7505722;-32
2023/07/27 00:34:55;;;;;;;0.90;0.40;;;;;;;-128.00;-1.00;-1.00;18505;338;7504437;-35
2023/07/27 01:17:27;;;;;;;1.70;1.00;;;;;;;-100.77;19.20;19802.68;19562;316;8045288;-31
2023/07/27 01:20:04;;;;;;;4.40;1.40;;;;;;;-128.00;-1.00;-1.00;18116;333;7505972;-31
2023/07/27 01:23:03;;;;;;;1.90;1.20;;;;;;;-128.00;-1.00;-1.00;18467;297;7503913;-34
2023/07/27 01:26:00;;;;;;;1.30;1.00;;;;;;;-128.00;-1.00;-1.00;18493;297;7506419;-33
2023/07/27 01:28:43;;;;;;;0.50;0.40;;;;;;;-128.00;-1.00;-1.00;18469;305;7504433;-33
2023/07/27 01:31:12;;;;;;;2.20;1.30;;;;;;;-128.00;-1.00;-1.00;18446;296;7504170;-34
2023/07/27 01:33:40;;;;;;;7.40;1.20;;;;;;;-128.00;-1.00;-1.00;18456;297;7506839;-34
2023/07/27 01:36:17;;;;;;;4.50;0.80;;;;;;;-128.00;-1.00;-1.00;18482;296;7504944;-32
2023/07/27 01:38:43;;;;;;;2.90;1.60;;;;;;;-128.00;-1.00;-1.00;18473;297;7504609;-30
2023/07/27 01:41:09;;;;;;;6.50;1.10;;;;;;;-128.00;-1.00;-1.00;18447;320;7506173;-34
2023/07/27 01:43:36;;;;;;;0.70;0.50;;;;;;;-128.00;-1.00;-1.00;18453;349;7504326;-31
2023/07/27 01:46:02;;;;;;;6.70;1.00;;;;;;;-128.00;-1.00;-1.00;18481;297;7504266;-34
2023/07/27 01:48:27;;;;;;;3.50;1.30;;;;;;;-128.00;-1.00;-1.00;18463;296;7504486;-33
2023/07/27 01:50:54;;;;;;;1.10;0.80;;;;;;;-128.00;-1.00;-1.00;18447;320;7504463;-32
2023/07/27 01:53:20;;;;;;;2.70;1.00;;;;;;;-128.00;-1.00;-1.00;18441;301;7505822;-32
2023/07/27 01:55:46;;;;;;;1.60;0.70;;;;;;;-128.00;-1.00;-1.00;18452;298;7507223;-35
2023/07/27 01:58:14;;;;;;;1.80;1.00;;;;;;;-128.00;-1.00;-1.00;18867;297;7505130;-31
2023/07/27 02:00:40;;;;;;;0.90;0.60;;;;;;;-128.00;-1.00;-1.00;18456;296;7504811;-32
2023/07/27 02:03:06;;;;;;;2.90;1.00;;;;;;;-128.00;-1.00;-1.00;18863;297;7504616;-32
2023/07/27 02:05:32;;;;;;;4.90;1.60;;;;;;;-128.00;-1.00;-1.00;18897;296;7504452;-35
2023/07/27 02:07:58;;;;;;;2.50;1.10;;;;;;;-128.00;-1.00;-1.00;18849;298;7504716;-34
2023/07/27 02:10:24;;;;;;;1.50;0.90;;;;;;;-128.00;-1.00;-1.00;18882;297;7504855;-32
2023/07/27 02:12:53;;;;;;;1.60;0.90;;;;;;;-128.00;-1.00;-1.00;18882;297;7504371;-35
2023/07/27 02:15:32;;;;;;;1.90;1.00;;;;;;;-128.00;-1.00;-1.00;18449;336;7504454;-32
2023/07/27 02:18:06;;;;;;;2.40;1.30;;;;;;;-128.00;-1.00;-1.00;18460;343;7505062;-32
2023/07/27 02:20:33;;;;;;;7.30;1.80;;;;;;;-128.00;-1.00;-1.00;18463;289;7504431;-32
2023/07/27 02:22:59;;;;;;;11.70;1.20;;;;;;;-128.00;-1.00;-1.00;18506;285;7505105;-35
2023/07/27 02:25:25;;;;;;;2.40;1.10;;;;;;;-128.00;-1.00;-1.00;18495;345;7504937;-35
2023/07/27 02:27:50;;;;;;;2.90;2.30;;;;;;;-128.00;-1.00;-1.00;18473;289;7504474;-32
2023/07/27 02:30:17;;;;;;;2.70;1.70;;;;;;;-128.00;-1.00;-1.00;18880;285;7504706;-32
2023/07/27 02:32:43;;;;;;;4.70;1.60;;;;;;;-128.00;-1.00;-1.00;18853;296;7504674;-32
2023/07/27 02:35:09;;;;;;;2.40;1.10;;;;;;;-128.00;-1.00;-1.00;18855;285;7505845;-34
2023/07/27 02:37:35;;;;;;;1.50;1.10;;;;;;;-128.00;-1.00;-1.00;18874;285;7504396;-34
2023/07/27 02:40:02;;;;;;;5.20;1.00;;;;;;;-128.00;-1.00;-1.00;18868;289;7504583;-35
2023/07/27 02:42:28;;;;;;;4.90;1.40;;;;;;;-128.00;-1.00;-1.00;18873;312;7504968;-34
2023/07/27 02:44:54;;;;;;;1.50;1.10;;;;;;;-128.00;-1.00;-1.00;18868;289;7504718;-31
2023/07/27 02:47:20;;;;;;;5.40;1.20;;;;;;;-128.00;-1.00;-1.00;18884;285;7504672;-31
2023/07/27 02:49:48;;;;;;;1.70;1.20;;;;;;;-128.00;-1.00;-1.00;18473;348;7504579;-34
2023/07/27 02:52:14;;;;;;;2.40;1.60;;;;;;;-128.00;-1.00;-1.00;18486;285;7504543;-34
2023/07/27 02:54:40;;;;;;;1.30;0.90;;;;;;;-128.00;-1.00;-1.00;18435;324;7504933;-34
2023/07/27 02:57:06;;;;;;;3.30;0.90;;;;;;;-128.00;-1.00;-1.00;18878;297;7504495;-34
2023/07/27 02:59:32;;;;;;;2.20;1.20;;;;;;;-128.00;-1.00;-1.00;18853;285;7504529;-34
2023/07/27 03:01:58;;;;;;;2.50;1.30;;;;;;;-128.00;-1.00;-1.00;18876;296;7506107;-32
2023/07/27 03:04:25;;;;;;;1.20;0.80;;;;;;;-128.00;-1.00;-1.00;18880;297;7504884;-32
2023/07/27 03:06:51;;;;;;;3.30;1.20;;;;;;;-128.00;-1.00;-1.00;18849;297;7504408;-34
2023/07/27 03:09:17;;;;;;;2.10;1.40;;;;;;;-128.00;-1.00;-1.00;18857;297;7504906;-31
2023/07/27 03:11:43;;;;;;;2.70;1.80;;;;;;;-128.00;-1.00;-1.00;18844;285;7505879;-34
2023/07/27 03:14:09;;;;;;;4.70;1.50;;;;;;;-128.00;-1.00;-1.00;18859;348;7506295;-31
2023/07/27 03:16:36;;;;;;;2.70;1.40;;;;;;;-128.00;-1.00;-1.00;18866;285;7504856;-32
2023/07/27 03:19:02;;;;;;;5.80;1.60;;;;;;;-128.00;-1.00;-1.00;18853;285;7504445;-34
2023/07/27 03:21:28;;;;;;;2.40;1.50;;;;;;;-128.00;-1.00;-1.00;18875;285;7505331;-34
2023/07/27 03:23:54;;;;;;;2.90;1.80;;;;;;;-128.00;-1.00;-1.00;18879;297;7504946;-33
2023/07/27 03:26:20;;;;;;;3.40;1.70;;;;;;;-128.00;-1.00;-1.00;18861;297;7504406;-31
2023/07/27 03:28:46;;;;;;;3.00;1.30;;;;;;;-128.00;-1.00;-1.00;18852;285;7504718;-34
2023/07/27 03:31:21;;;;;;;4.30;2.30;;;;;;;-128.00;-1.00;-1.00;18874;285;7504756;-34
2023/07/27 03:33:47;;;;;;;3.10;1.30;;;;;;;-128.00;-1.00;-1.00;18497;297;7504252;-34
2023/07/27 03:36:14;;;;;;;3.50;2.10;;;;;;;-128.00;-1.00;-1.00;18449;297;7504997;-31
2023/07/27 03:38:40;;;;;;;5.30;2.00;;;;;;;-128.00;-1.00;-1.00;18467;316;7504638;-33
2023/07/27 03:41:06;;;;;;;10.20;2.70;;;;;;;-128.00;-1.00;-1.00;18860;297;7504131;-31
2023/07/27 03:43:33;;;;;;;2.70;1.90;;;;;;;-128.00;-1.00;-1.00;18868;285;7504687;-34
2023/07/27 03:45:59;;;;;;;2.20;1.70;;;;;;;-128.00;-1.00;-1.00;18435;297;7504948;-31
2023/07/27 03:48:25;;;;;;;2.80;1.40;;;;;;;-128.00;-1.00;-1.00;18455;285;7506244;-31
2023/07/27 03:50:52;;;;;;;6.00;2.10;;;;;;;-128.00;-1.00;-1.00;18477;297;7505639;-31
2023/07/27 03:53:18;;;;;;;2.90;1.40;;;;;;;-128.00;-1.00;-1.00;18453;341;7504789;-34
2023/07/27 03:55:44;;;;;;;4.00;1.40;;;;;;;-128.00;-1.00;-1.00;18445;296;7506992;-32
2023/07/27 03:58:10;;;;;;;2.30;1.80;;;;;;;-128.00;-1.00;-1.00;18461;297;7504734;-31
2023/07/27 04:00:36;;;;;;;3.40;2.10;;;;;;;-128.00;-1.00;-1.00;18467;348;7504646;-31
2023/07/27 04:03:02;;;;;;;4.10;2.20;;;;;;;-128.00;-1.00;-1.00;18460;297;7506279;-35
2023/07/27 04:05:27;;;;;;;13.50;2.80;;;;;;;-128.00;-1.00;-1.00;18466;309;7506393;-32
2023/07/27 04:07:53;;;;;;;8.40;2.40;;;;;;;-128.00;-1.00;-1.00;18441;297;7504842;-32
2023/07/27 04:10:18;;;;;;;5.00;3.30;;;;;;;-128.00;-1.00;-1.00;18469;285;7505621;-33
2023/07/27 04:12:44;;;;;;;10.30;2.30;;;;;;;-128.00;-1.00;-1.00;18478;285;7504717;-32
2023/07/27 04:15:10;;;;;;;2.60;2.40;;;;;;;-128.00;-1.00;-1.00;18477;297;7504616;-35
2023/07/27 04:17:36;;;;;;;2.60;2.20;;;;;;;-128.00;-1.00;-1.00;18478;285;7506470;-32
2023/07/27 04:20:02;;;;;;;2.30;1.70;;;;;;;-128.00;-1.00;-1.00;18460;297;7504648;-32
2023/07/27 04:22:28;;;;;;;6.40;2.00;;;;;;;-128.00;-1.00;-1.00;18458;296;7506201;-35
2023/07/27 04:24:54;;;;;;;10.10;1.50;;;;;;;-128.00;-1.00;-1.00;18472;285;7506019;-32
2023/07/27 04:27:20;;;;;;;2.70;1.90;;;;;;;-128.00;-1.00;-1.00;18863;285;7504724;-35
2023/07/27 04:29:46;;;;;;;2.60;2.10;;;;;;;-128.00;-1.00;-1.00;18870;285;7505439;-35
2023/07/27 04:32:12;;;;;;;2.90;2.10;;;;;;;-128.00;-1.00;-1.00;18890;285;7504547;-32
2023/07/27 04:34:38;;;;;;;6.30;2.10;;;;;;;-128.00;-1.00;-1.00;18873;285;7504892;-32
2023/07/27 04:37:05;;;;;;;2.60;1.70;;;;;;;-128.00;-1.00;-1.00;18871;348;7504618;-33
2023/07/27 04:39:31;;;;;;;3.20;1.90;;;;;;;-128.00;-1.00;-1.00;18863;297;7505848;-35
2023/07/27 04:41:57;;;;;;;2.70;1.80;;;;;;;-128.00;-1.00;-1.00;18873;285;7504738;-36
2023/07/27 04:44:23;;;;;;;2.50;1.70;;;;;;;-128.00;-1.00;-1.00;18863;297;7504633;-33
2023/07/27 04:46:49;;;;;;;4.90;1.80;;;;;;;-128.00;-1.00;-1.00;18877;297;7504791;-36
2023/07/27 04:49:15;;;;;;;4.30;1.60;;;;;;;-128.00;-1.00;-1.00;18880;285;7506089;-33
2023/07/27 04:51:41;;;;;;;2.30;1.60;;;;;;;-128.00;-1.00;-1.00;18877;289;7506214;-33
2023/07/27 04:54:07;;;;;;;2.60;1.50;;;;;;;-128.00;-1.00;-1.00;18864;297;7504890;-33
2023/07/27 04:56:33;;;;;;;3.40;1.80;;;;;;;-128.00;-1.00;-1.00;18846;297;7505942;-32
2023/07/27 04:59:00;;;;;;;2.10;1.50;;;;;;;-128.00;-1.00;-1.00;18884;341;7505808;-35
2023/07/27 05:01:26;;;;;;;4.30;1.80;;;;;;;-128.00;-1.00;-1.00;18882;345;7504585;-34
2023/07/27 05:03:52;;;;;;;4.20;2.20;;;;;;;-128.00;-1.00;-1.00;18843;308;7504586;-32
2023/07/27 05:06:18;;;;;;;2.70;1.80;;;;;;;-128.00;-1.00;-1.00;18854;297;7504363;-35
2023/07/27 05:08:44;;;;;;;3.70;1.50;;;;;;;-128.00;-1.00;-1.00;18870;300;7504699;-32
2023/07/27 05:11:11;;;;;;;2.50;1.20;;;;;;;-128.00;-1.00;-1.00;18870;297;7505701;-32
2023/07/27 05:13:37;;;;;;;3.40;1.30;;;;;;;-128.00;-1.00;-1.00;18871;285;7505332;-31
2023/07/27 05:16:03;;;;;;;3.50;1.60;;;;;;;-128.00;-1.00;-1.00;18468;285;7504172;-32
2023/07/27 05:18:29;;;;;;;2.50;2.20;;;;;;;-128.00;-1.00;-1.00;18455;297;7505083;-32
2023/07/27 05:20:56;;;;;;;2.80;2.30;;;;;;;-128.00;-1.00;-1.00;18854;289;7505287;-34
2023/07/27 05:23:21;;;;;;;2.10;1.20;;;;;;;-128.00;-1.00;-1.00;18470;289;7504537;-34
2023/07/27 05:25:47;;;;;;;2.10;1.60;;;;;;;-128.00;-1.00;-1.00;18441;285;7504316;-34
2023/07/27 05:28:13;;;;;;;1.50;1.30;;;;;;;-128.00;-1.00;-1.00;18452;285;7504671;-32
2023/07/27 05:30:41;;;;;;;1.40;0.50;;;;;;;-128.00;-1.00;-1.00;18485;297;7504105;-35
2023/07/27 05:33:06;;;;;;;1.60;0.90;;;;;;;-128.00;-1.00;-1.00;18463;289;7506338;-34
2023/07/27 05:35:32;;;;;;;0.60;0.50;;;;;;;-128.00;-1.00;-1.00;18440;297;7505111;-35
2023/07/27 05:37:58;;;;;;;0.80;0.50;;;;;;;-128.00;-1.00;-1.00;18447;301;7504512;-32
2023/07/27 05:40:24;;;;;;;2.10;1.00;;;;;;;-128.00;-1.00;-1.00;18489;348;7506974;-35
2023/07/27 05:42:49;;;;;;;2.40;1.50;;;;;;;-128.00;-1.00;-1.00;18466;296;7505872;-33
2023/07/27 05:45:16;;;;;;;1.60;0.70;;;;;;;-128.00;-1.00;-1.00;18842;296;7504602;-36
2023/07/27 05:47:42;;;;;;;2.30;1.30;;;;;;;-128.00;-1.00;-1.00;18867;297;7505003;-35
2023/07/27 05:50:09;;;;;;;1.60;1.00;;;;;;;-128.00;-1.00;-1.00;18867;285;7504689;-32
2023/07/27 05:52:35;;;;;;;14.50;12.70;;;;;;;-128.00;-1.00;-1.00;18456;297;7506382;-32
2023/07/27 05:55:00;;;;;;;9.60;8.80;;;;;;;-128.00;-1.00;-1.00;18459;285;7506941;-35
2023/07/27 05:57:26;;;;;;;6.90;6.20;;;;;;;-128.00;-1.00;-1.00;18855;289;7504335;-35
2023/07/27 05:59:53;;;;;;;2.10;1.50;;;;;;;-128.00;-1.00;-1.00;18858;289;7504888;-32
2023/07/27 06:02:19;;;;;;;1.60;1.00;;;;;;;-128.00;-1.00;-1.00;18910;320;7504814;-33
2023/07/27 06:04:45;;;;;;;1.00;0.90;;;;;;;-128.00;-1.00;-1.00;18877;296;7504715;-35
2023/07/27 06:07:11;;;;;;;1.20;0.90;;;;;;;-128.00;-1.00;-1.00;18872;308;7504908;-36
2023/07/27 06:09:38;;;;;;;2.50;1.80;;;;;;;-128.00;-1.00;-1.00;18869;297;7504700;-31
2023/07/27 06:12:11;;;;;;;7.60;5.30;;;;;;;-128.00;-1.00;-1.00;18848;285;7504804;-35
2023/07/27 06:14:40;;;;;;;12.70;2.70;;;;;;;-128.00;-1.00;-1.00;18454;297;7504357;-35
2023/07/27 06:17:06;;;;;;;5.70;1.30;;;;;;;-128.00;-1.00;-1.00;18482;296;7505203;-35
2023/07/27 06:19:32;;;;;;;4.30;0.70;;;;;;;-128.00;-1.00;-1.00;18465;297;7505786;-33
2023/07/27 06:21:57;;;;;;;1.30;1.00;;;;;;;-128.00;-1.00;-1.00;18476;289;7504962;-35
2023/07/27 06:24:23;;;;;;;1.30;0.70;;;;;;;-128.00;-1.00;-1.00;18864;348;7505966;-34
2023/07/27 06:26:50;;;;;;;2.60;0.90;;;;;;;-128.00;-1.00;-1.00;18863;298;7504154;-33
2023/07/27 06:29:16;;;;;;;2.40;1.40;;;;;;;-128.00;-1.00;-1.00;18852;296;7504698;-34
2023/07/27 06:31:42;;;;;;;3.00;1.00;;;;;;;-128.00;-1.00;-1.00;18854;297;7504570;-35
2023/07/27 06:34:09;;;;;;;1.90;0.80;;;;;;;-128.00;-1.00;-1.00;18876;337;7504122;-33
2023/07/27 06:36:35;;;;;;;1.10;0.50;;;;;;;-128.00;-1.00;-1.00;18859;290;7504691;-35
2023/07/27 06:39:01;;;;;;;2.20;1.50;;;;;;;-128.00;-1.00;-1.00;18862;297;7504555;-35
2023/07/27 06:41:27;;;;;;;1.50;1.00;;;;;;;-128.00;-1.00;-1.00;18870;297;7506253;-33
2023/07/27 06:43:54;;;;;;;2.50;1.00;;;;;;;-128.00;-1.00;-1.00;18842;297;7504708;-35
2023/07/27 06:46:20;;;;;;;2.60;1.40;;;;;;;-128.00;-1.00;-1.00;18864;348;7504400;-33
2023/07/27 06:48:46;;;;;;;2.80;1.20;;;;;;;-128.00;-1.00;-1.00;18437;297;7505257;-33
2023/07/27 06:51:13;;;;;;;0.70;0.50;;;;;;;-128.00;-1.00;-1.00;18480;289;7505968;-32
2023/07/27 06:53:38;;;;;;;1.50;1.10;;;;;;;-128.00;-1.00;-1.00;18466;317;7505751;-33
2023/07/27 06:56:04;;;;;;;7.60;0.80;;;;;;;-128.00;-1.00;-1.00;18485;285;7506027;-32
2023/07/27 06:58:30;;;;;;;1.30;0.60;;;;;;;-128.00;-1.00;-1.00;18476;285;7506978;-32
2023/07/27 07:00:56;;;;;;;3.60;0.80;;;;;;;-128.00;-1.00;-1.00;18475;288;7506380;-35
2023/07/27 07:03:22;;;;;;;2.30;1.40;;;;;;;-128.00;-1.00;-1.00;18453;297;7505752;-36
2023/07/27 07:05:47;;;;;;;1.10;0.60;;;;;;;-128.00;-1.00;-1.00;18467;348;7506185;-34
2023/07/27 07:08:14;;;;;;;1.90;0.80;;;;;;;-128.00;-1.00;-1.00;18887;289;7506181;-33
2023/07/27 07:10:40;;;;;;;3.50;1.10;;;;;;;-128.00;-1.00;-1.00;18888;285;7504786;-33
2023/07/27 07:13:06;;;;;;;5.40;1.60;;;;;;;-128.00;-1.00;-1.00;18458;297;7504592;-36
2023/07/27 07:15:32;;;;;;;2.60;1.20;;;;;;;-128.00;-1.00;-1.00;18893;297;7504531;-34
2023/07/27 07:17:59;;;;;;;2.70;1.70;;;;;;;-128.00;-1.00;-1.00;18845;324;7504523;-35
2023/07/27 07:20:25;;;;;;;1.40;0.90;;;;;;;-128.00;-1.00;-1.00;18875;285;7505309;-34
2023/07/27 07:22:51;;;;;;;1.40;1.00;;;;;;;-128.00;-1.00;-1.00;18859;289;7504368;-33
2023/07/27 07:25:17;;;;;;;3.40;2.00;;;;;;;-128.00;-1.00;-1.00;18871;297;7505114;-34
2023/07/27 07:27:44;;;;;;;1.70;0.80;;;;;;;-128.00;-1.00;-1.00;18885;296;7505213;-33
2023/07/27 07:30:11;;;;;;;7.60;1.10;;;;;;;-128.00;-1.00;-1.00;18874;297;7505220;-33
2023/07/27 07:32:37;;;;;;;2.10;0.90;;;;;;;-128.00;-1.00;-1.00;18434;297;7505767;-35
2023/07/27 07:35:02;;;;;;;1.60;1.00;;;;;;;-128.00;-1.00;-1.00;18443;297;7506299;-32
2023/07/27 07:37:28;;;;;;;1.30;0.70;;;;;;;-128.00;-1.00;-1.00;18435;320;7504736;-35
2023/07/27 07:39:54;;;;;;;1.20;0.70;;;;;;;-128.00;-1.00;-1.00;18885;285;7505116;-32
2023/07/27 07:42:20;;;;;;;1.10;0.80;;;;;;;-128.00;-1.00;-1.00;18866;297;7504359;-33
2023/07/27 07:44:47;;;;;;;1.40;0.90;;;;;;;-128.00;-1.00;-1.00;18852;285;7504511;-33
2023/07/27 07:53:23;;;;;;;0.70;0.40;;;;;;;;;;101056;300;543463;-30
2023/07/27 07:55:48;;;;;;;0.70;0.50;;;;;;;;;;101244;302;22664;-34
2023/07/27 07:58:14;;;;;;;1.30;0.50;;;;;;;;;;101300;302;24151;-36
2023/07/27 08:00:39;;;;;;;1.10;0.50;;;;;;;;;;100945;302;22580;-36
2023/07/27 08:03:05;;;;;;;1.60;0.90;;;;;;;;;;101002;290;22580;-35
2023/07/27 08:05:31;;;;;;;2.00;0.70;;;;;;;;;;101147;302;23017;-32
2023/07/27 08:07:57;;;;;;;2.00;0.90;;;;;;;;;;100905;301;511413;-35
2023/07/27 08:10:22;;;;;;;2.10;1.30;;;;;;;;;;101030;300;24043;-32
2023/07/27 08:12:49;;;;;;;1.00;0.70;;;;;;;;;;101069;300;22889;-34
2023/07/27 08:15:17;;;;;;;1.00;0.60;;;;;;;;;;101188;300;22846;-35
2023/07/27 08:17:42;;;;;;;2.40;0.60;;;;;;;;;;101183;300;22679;-36
2023/07/27 08:20:09;;;;;;;2.20;1.10;;;;;;;;;;101069;300;24248;-38
2023/07/27 08:22:35;;;;;;;0.80;0.40;;;;;;;;;;101239;300;22613;-35
2023/07/27 08:25:00;;;;;;;2.60;0.90;;;;;;;;;;101241;298;22710;-32
2023/07/27 08:27:26;;;;;;;1.60;0.70;;;;;;;;;;101385;298;22674;-33
2023/07/27 08:29:52;;;;;;;2.90;0.70;;;;;;;;;;101232;299;24145;-36
2023/07/27 08:32:17;;;;;;;1.00;0.70;;;;;;;;;;101251;299;22574;-34
2023/07/27 08:34:43;;;;;;;1.90;1.20;;;;;;;;;;101357;298;22976;-34
2023/07/27 08:37:08;;;;;;;0.90;0.80;;;;;;;;;;101306;298;22573;-34
2023/07/27 08:39:35;;;;;;;1.20;0.80;;;;;;;;;;101085;288;22878;-33
2023/07/27 08:42:00;;;;;;;0.60;0.50;;;;;;;;;;101262;298;22855;-36
2023/07/27 08:44:26;;;;;;;1.40;0.90;;;;;;;;;;101251;299;23127;-37
2023/07/27 08:46:52;;;;;;;1.40;0.60;;;;;;;;;;101339;288;24216;-33
2023/07/27 08:49:18;;;;;;;0.80;0.70;;;;;;;;;;101240;299;24212;-35
2023/07/27 08:51:46;;;;;;;2.00;0.50;;;;;;;;;;101353;288;22594;-32
2023/07/27 08:54:12;;;;;;;0.70;0.70;;;;;;;;;;101233;299;24077;-35
2023/07/27 08:56:37;;;;;;;1.50;0.90;;;;;;;;;;101349;299;22856;-32
2023/07/27 08:59:03;;;;;;;2.10;0.80;;;;;;;;;;101248;299;24267;-32
2023/07/27 09:01:28;;;;;;;2.20;0.80;;;;;;;;;;101222;298;22541;-34
2023/07/27 09:03:54;;;;;;;1.70;1.00;;;;;;;;;;101335;288;22553;-32
2023/07/27 09:06:32;;;;;;;1.20;0.90;;;;;;;;;;101283;288;22679;-32
2023/07/27 09:08:57;;;;;;;1.20;0.80;;;;;;;;;;101369;299;22886;-32
2023/07/27 09:11:24;;;;;;;1.70;0.60;;;;;;;;;;101248;287;22674;-41
2023/07/27 09:13:49;;;;;;;3.40;0.90;;;;;;;;;;101402;288;23129;-35
2023/07/27 09:16:15;;;;;;;1.00;0.80;;;;;;;;;;101300;287;24210;-35
2023/07/27 09:18:40;;;;;;;1.60;0.70;;;;;;;;;;101467;288;23124;-35
2023/07/27 09:21:07;;;;;;;1.20;0.60;;;;;;;;;;101276;287;22676;-32
2023/07/27 09:23:33;;;;;;;1.90;0.70;;;;;;;;;;101259;299;22888;-32
2023/07/27 09:25:58;;;;;;;1.10;0.80;;;;;;;;;;101293;287;23127;-32
2023/07/27 09:28:24;;;;;;;1.10;0.90;;;;;;;;;;101288;299;22731;-35
2023/07/27 09:30:50;;;;;;;1.20;0.80;;;;;;;;;;101166;299;22580;-35
2023/07/27 09:33:16;;;;;;;0.90;0.60;;;;;;;;;;101194;287;22699;-34
2023/07/27 09:35:43;;;;;;;1.40;0.60;;;;;;;;;;101224;299;22639;-37
2023/07/27 09:38:09;;;;;;;1.30;0.80;;;;;;;;;;101345;299;22528;-34
2023/07/27 09:40:36;;;;;;;2.00;1.00;;;;;;;;;;101315;287;22886;-35
2023/07/27 09:43:04;;;;;;;1.70;1.10;;;;;;;;;;101304;288;22588;-35
2023/07/27 09:45:34;;;;;;;1.70;1.10;;;;;;;;;;101401;287;22603;-32
2023/07/27 09:48:00;;;;;;;1.10;0.70;;;;;;;;;;101281;299;22647;-35
2023/07/27 09:50:25;;;;;;;1.40;0.70;;;;;;;;;;101344;287;22855;-32
2023/07/27 09:52:51;;;;;;;1.80;1.10;;;;;;;;;;101309;299;22677;-32
2023/07/27 09:55:17;;;;;;;0.70;0.70;;;;;;;;;;101144;287;23044;-31
2023/07/27 09:57:42;;;;;;;7.60;0.80;;;;;;;;;;101223;288;22580;-31
2023/07/27 10:00:09;;;;;;;0.70;0.50;;;;;;;;;;101370;299;22579;-31
2023/07/27 10:02:35;;;;;;;1.90;0.60;;;;;;;;;;101394;288;22839;-34
2023/07/27 10:05:02;;;;;;;1.00;0.70;;;;;;;;;;101256;299;22676;-36
2023/07/27 10:07:27;;;;;;;0.70;0.60;;;;;;;;;;101263;299;22582;-32
2023/07/27 10:10:05;;;;;;;2.90;0.50;;;;;;;;;;101102;300;22614;-32
2023/07/27 10:12:31;;;;;;;1.00;0.70;;;;;;;;;;101144;288;24197;-35
2023/07/27 10:15:09;;;;;;;1.00;0.80;;;;;;;;;;101112;288;25193;-33
2023/07/27 10:17:41;;;;;;;1.10;0.90;;;;;;;;;;101462;288;22590;-34
2023/07/27 10:20:19;;;;;;;0.60;0.50;;;;;;;;;;101290;300;22668;-31
2023/07/27 10:22:46;;;;;;;0.90;0.60;;;;;;;;;;101077;288;22886;-31
2023/07/27 10:25:11;;;;;;;2.30;0.70;;;;;;;;;;101175;288;22677;-31
2023/07/27 10:27:52;;;;;;;1.70;0.70;;;;;;;;;;101339;299;23010;-35
2023/07/27 10:30:18;;;;;;;1.30;1.10;;;;;;;;;;101313;300;22679;-35
2023/07/27 10:33:04;;;;;;;1.60;0.90;;;;;;;;;;101321;299;22888;-35
2023/07/27 10:35:30;;;;;;;0.80;0.40;;;;;;;;;;101287;299;22668;-38
2023/07/27 10:37:56;;;;;;;0.90;0.50;;;;;;;;;;101342;287;22593;-34
2023/07/27 10:40:25;;;;;;;1.20;0.60;;;;;;;;;;101253;287;22856;-32
2023/07/27 10:42:57;;;;;;;1.90;0.70;;;;;;;;;;101245;287;24113;-36
2023/07/27 10:45:23;;;;;;;0.70;0.70;;;;;;;;;;101346;287;22590;-36
2023/07/27 10:47:49;;;;;;;1.00;0.70;;;;;;;;;;101280;287;25890;-33
2023/07/27 10:50:17;;;;;;;0.60;0.60;;;;;;;;;;101284;299;22679;-32
2023/07/27 10:52:43;;;;;;;1.50;0.70;;;;;;;;;;101392;288;22614;-32
2023/07/27 10:55:08;;;;;;;2.20;0.90;;;;;;;;;;101797;292;22606;-35
2023/07/27 10:57:35;;;;;;;1.00;0.60;;;;;;;;;;101672;284;22576;-35
2023/07/27 11:00:01;;;;;;;0.80;0.60;;;;;;;;;;101762;292;24232;-35
2023/07/27 11:02:28;;;;;;;0.90;0.40;;;;;;;;;;101730;292;22796;-33
2023/07/27 11:04:55;;;;;;;0.80;0.70;;;;;;;;;;101738;292;22883;-37
2023/07/27 11:07:35;;;;;;;1.10;0.50;;;;;;;;;;101793;292;22567;-35
2023/07/27 11:10:06;;;;;;;1.00;0.50;;;;;;;;;;101743;292;22802;-31
2023/07/27 11:12:32;;;;;;;0.60;0.30;;;;;;;;;;101664;292;22574;-35
2023/07/27 11:15:09;;;;;;;1.10;0.60;;;;;;;;;;101844;292;22591;-35
2023/07/27 11:17:35;;;;;;;0.90;0.70;;;;;;;;;;101690;292;22577;-35
2023/07/27 11:20:00;;;;;;;2.40;1.10;;;;;;;;;;101658;292;22749;-31
2023/07/27 11:22:26;;;;;;;8.70;0.70;;;;;;;;;;101637;292;24237;-31
2023/07/27 11:24:52;;;;;;;1.90;0.80;;;;;;;;;;101469;293;22573;-31
2023/07/27 11:27:17;;;;;;;2.10;0.90;;;;;;;;;;101688;292;24141;-34
2023/07/27 11:29:45;;;;;;;0.90;0.50;;;;;;;;;;101588;292;22631;-31
2023/07/27 11:32:10;;;;;;;1.50;0.60;;;;;;;;;;101728;292;22664;-31
2023/07/27 11:34:37;;;;;;;2.80;0.50;;;;;;;;;;101532;292;24109;-38
2023/07/27 11:37:03;;;;;;;2.10;0.40;;;;;;;;;;101658;292;22953;-35
2023/07/27 11:39:28;;;;;;;2.00;0.70;;;;;;;;;;101694;292;22904;-32
2023/07/27 11:41:54;;;;;;;0.90;0.60;;;;;;;;;;101620;292;22694;-32
2023/07/27 11:44:20;;;;;;;2.10;0.60;;;;;;;;;;101579;292;22882;-35
2023/07/27 11:46:46;;;;;;;0.90;0.60;;;;;;;;;;101595;292;23035;-35
2023/07/27 11:49:13;;;;;;;0.80;0.50;;;;;;;;;;101740;292;22683;-38
2023/07/27 11:51:39;;;;;;;0.40;0.30;;;;;;;;;;101676;292;22578;-35
2023/07/27 11:54:05;;;;;;;0.70;0.40;;;;;;;;;;101607;285;22654;-35
2023/07/27 11:56:34;;;;;;;2.30;0.70;;;;;;;;;;101580;292;22914;-38
2023/07/27 11:58:59;;;;;;;0.60;0.40;;;;;;;;;;101522;292;22882;-35
2023/07/27 12:01:25;;;;;;;1.80;0.80;;;;;;;;;;101662;292;22663;-31
2023/07/27 12:03:51;;;;;;;0.60;0.40;;;;;;;;;;101568;293;24182;-35
2023/07/27 12:06:21;;;;;;;2.10;0.90;;;;;;;;;;101569;292;22582;-34
2023/07/27 12:08:47;;;;;;;0.70;0.50;;;;;;;;;;101625;281;22570;-37
2023/07/27 12:11:12;;;;;;;0.80;0.50;;;;;;;;;;101689;292;22588;-31
2023/07/27 12:13:38;;;;;;;1.50;0.60;;;;;;;;;;101678;292;22570;-31
2023/07/27 12:16:05;;;;;;;0.60;0.40;;;;;;;;;;101584;292;22879;-35
2023/07/27 12:18:31;;;;;;;1.10;0.60;;;;;;;;;;101627;292;22845;-34
2023/07/27 12:20:57;;;;;;;0.40;0.30;;;;;;;;;;101787;292;24149;-34
2023/07/27 12:23:23;;;;;;;1.10;0.50;;;;;;;;;;101710;292;22879;-33
2023/07/27 12:25:48;;;;;;;1.00;0.80;;;;;;;;;;101778;292;22882;-31
2023/07/27 12:28:14;;;;;;;1.00;0.50;;;;;;;;;;101581;293;24277;-39
2023/07/27 12:30:40;;;;;;;0.70;0.30;;;;;;;;;;101656;292;24072;-35
2023/07/27 12:33:06;;;;;;;0.50;0.40;;;;;;;;;;101685;292;24114;-32
2023/07/27 13:14:49;;;;;;;1.10;0.80;;;;;;;25.37;33.01;98848.23;101245;293;556762;-32
2023/07/27 13:17:14;;;;;;;2.90;0.90;;;;;;;25.35;32.28;98846.20;100989;294;562412;-32
2023/07/27 13:19:41;;;;;;;1.70;0.70;;;;;;;25.45;32.14;98841.77;101515;293;23827;-32
2023/07/27 13:22:06;;;;;;;0.70;0.60;;;;;;;25.78;31.68;98836.38;101489;282;22588;-35
2023/07/27 13:24:32;;;;;;;0.50;0.40;;;;;;;25.51;31.96;98832.61;101598;285;22986;-34
2023/07/27 13:26:58;;;;;;;1.40;0.80;;;;;;;25.42;31.38;98832.27;101518;293;22575;-32
2023/07/27 13:29:23;;;;;;;0.70;0.50;;;;;;;25.60;31.38;98835.17;101549;293;22574;-31
2023/07/27 13:31:49;;;;;;;0.60;0.50;;;;;;;25.50;32.04;98831.64;101644;293;22671;-31
2023/07/27 13:34:15;;;;;;;0.50;0.40;;;;;;;25.49;31.65;98828.30;101546;293;22661;-35
2023/07/27 13:36:40;;;;;;;0.40;0.30;;;;;;;25.88;30.13;98830.93;101436;293;22883;-35
2023/07/27 13:39:06;;;;;;;0.80;0.50;;;;;;;25.38;31.39;98829.81;101483;293;22970;-35
2023/07/27 13:41:32;;;;;;;1.00;0.50;;;;;;;25.91;31.22;98825.63;101483;282;22669;-38
2023/07/27 13:43:57;;;;;;;0.80;0.50;;;;;;;25.85;30.52;98828.77;101464;293;22572;-32
2023/07/27 13:46:24;;;;;;;1.00;0.60;;;;;;;26.28;29.93;98830.39;101537;293;22574;-32
2023/07/27 13:48:50;;;;;;;1.10;0.90;;;;;;;26.15;30.04;98823.73;101347;293;24132;-32
2023/07/27 13:51:15;;;;;;;2.80;1.10;;;;;;;26.01;30.53;98824.96;101536;293;22580;-35
2023/07/27 13:53:41;;;;;;;0.80;0.40;;;;;;;25.81;30.43;98822.70;101339;293;22984;-31
2023/07/27 13:56:07;;;;;;;0.60;0.40;;;;;;;25.90;30.15;98818.16;101479;293;22535;-31